Time;durP1;ratioP1;P1;durP2;ratioP2;P2;SDS_P1;SDS_P2;PMS_P1;PMS_P2;Temp;Humidity;BMP_temperature;BMP_pressure;BME280_temperature;BME280_humidity;BME280_pressure;Samples;Min_cycle;Max_cycle;Signal;HPM_P1;HPM_P2
2022/04/19 00:02:05;;;;;;;252.32;155.77;;;;;;;;;;4974382;28;20065;-38
2022/04/19 00:04:32;;;;;;;272.13;165.65;;;;;;;;;;4973976;28;20042;-39
2022/04/19 00:06:59;;;;;;;314.10;205.85;;;;;;;;;;4974342;28;20548;-38
2022/04/19 00:09:26;;;;;;;313.40;191.73;;;;;;;;;;4987958;28;20038;-40
2022/04/19 00:11:53;;;;;;;343.50;214.63;;;;;;;;;;4975059;28;20594;-41
2022/04/19 00:14:20;;;;;;;338.17;208.43;;;;;;;;;;4974782;28;20386;-38
2022/04/19 00:16:47;;;;;;;355.75;229.00;;;;;;;;;;4975258;28;20448;-39
2022/04/19 00:19:14;;;;;;;361.10;235.07;;;;;;;;;;4974788;28;20031;-37
2022/04/19 00:21:41;;;;;;;362.42;235.32;;;;;;;;;;4975051;28;20552;-36
2022/04/19 00:24:08;;;;;;;345.08;231.63;;;;;;;;;;4974883;28;20054;-35
2022/04/19 00:26:35;;;;;;;330.83;220.18;;;;;;;;;;4974695;28;20027;-37
2022/04/19 00:29:02;;;;;;;324.23;213.07;;;;;;;;;;4984683;28;20129;-37
2022/04/19 00:31:29;;;;;;;327.40;225.35;;;;;;;;;;4974953;28;20030;-38
2022/04/19 00:33:57;;;;;;;320.52;224.30;;;;;;;;;;4974526;28;20061;-36
2022/04/19 00:36:24;;;;;;;310.67;214.10;;;;;;;;;;4974951;28;20154;-37
2022/04/19 00:38:51;;;;;;;307.67;212.15;;;;;;;;;;4976439;28;20038;-39
2022/04/19 00:41:18;;;;;;;297.77;200.32;;;;;;;;;;4981927;28;20117;-38
2022/04/19 00:43:45;;;;;;;303.63;207.70;;;;;;;;;;4979787;28;20045;-38
2022/04/19 00:46:12;;;;;;;286.05;192.55;;;;;;;;;;4974945;28;20103;-37
2022/04/19 00:48:39;;;;;;;303.02;199.10;;;;;;;;;;4974581;28;20085;-36
2022/04/19 00:51:07;;;;;;;283.38;189.63;;;;;;;;;;4974064;28;20146;-39
2022/04/19 00:53:34;;;;;;;278.35;191.05;;;;;;;;;;4974658;28;20117;-38
2022/04/19 00:56:01;;;;;;;274.60;179.00;;;;;;;;;;4976121;28;20046;-41
2022/04/19 00:58:28;;;;;;;266.40;176.65;;;;;;;;;;4975682;28;20113;-42
2022/04/19 01:00:55;;;;;;;260.13;173.88;;;;;;;;;;4974563;28;20030;-41
2022/04/19 01:03:24;;;;;;;259.45;172.10;;;;;;;;;;4987408;28;20062;-40
2022/04/19 01:05:53;;;;;;;249.35;163.10;;;;;;;;;;4973361;28;20042;-41
2022/04/19 01:08:20;;;;;;;233.50;154.13;;;;;;;;;;4974198;28;20034;-41
2022/04/19 01:10:47;;;;;;;227.93;152.05;;;;;;;;;;4974695;28;20034;-40
2022/04/19 01:13:18;;;;;;;228.55;146.80;;;;;;;;;;4974211;28;20448;-41
2022/04/19 01:15:49;;;;;;;224.98;146.48;;;;;;;;;;4973340;28;20520;-42
2022/04/19 01:18:26;;;;;;;217.07;142.90;;;;;;;;;;4974724;28;20026;-42
2022/04/19 01:20:53;;;;;;;202.75;141.00;;;;;;;;;;4974122;28;20042;-41
2022/04/19 01:23:21;;;;;;;209.13;141.38;;;;;;;;;;4974163;28;20078;-37
2022/04/19 01:25:48;;;;;;;207.57;135.80;;;;;;;;;;4974329;28;20043;-40
2022/04/19 01:28:15;;;;;;;207.32;137.75;;;;;;;;;;4974478;28;20050;-39
2022/04/19 01:30:43;;;;;;;208.43;135.20;;;;;;;;;;4974248;28;20450;-40
2022/04/19 01:33:10;;;;;;;197.68;132.77;;;;;;;;;;4974218;28;20038;-40
2022/04/19 01:35:38;;;;;;;196.02;130.30;;;;;;;;;;4973988;28;20387;-40
2022/04/19 01:38:05;;;;;;;188.73;130.13;;;;;;;;;;4974252;28;20115;-40
2022/04/19 01:40:32;;;;;;;192.93;128.32;;;;;;;;;;4972822;28;20034;-40
2022/04/19 01:43:01;;;;;;;187.00;126.40;;;;;;;;;;4973966;28;20085;-41
2022/04/19 01:45:28;;;;;;;184.85;123.80;;;;;;;;;;4974328;28;20031;-38
2022/04/19 01:47:59;;;;;;;182.90;122.55;;;;;;;;;;4973957;28;20035;-40
2022/04/19 01:50:27;;;;;;;182.55;123.85;;;;;;;;;;4974042;28;20031;-38
2022/04/19 01:52:55;;;;;;;170.05;117.43;;;;;;;;;;4974233;28;20039;-40
2022/04/19 01:55:23;;;;;;;172.45;116.68;;;;;;;;;;4973719;28;20154;-40
2022/04/19 01:57:54;;;;;;;166.57;112.47;;;;;;;;;;4979087;28;20043;-40
2022/04/19 02:00:21;;;;;;;165.45;112.72;;;;;;;;;;4982018;28;20480;-41
2022/04/19 02:02:48;;;;;;;167.68;111.75;;;;;;;;;;4983556;28;20034;-39
2022/04/19 02:05:16;;;;;;;157.98;107.38;;;;;;;;;;4982312;28;20117;-40
2022/04/19 02:07:44;;;;;;;153.55;105.78;;;;;;;;;;4981606;28;20026;-42
2022/04/19 02:10:12;;;;;;;155.73;105.35;;;;;;;;;;4978769;28;20031;-37
2022/04/19 02:12:39;;;;;;;152.63;102.90;;;;;;;;;;4982154;28;20045;-41
2022/04/19 02:18:16;;;;;;;142.35;99.90;;;;;;;;;;4978896;28;20521;-41
2022/04/19 02:20:45;;;;;;;144.02;98.88;;;;;;;;;;4980588;28;20037;-37
2022/04/19 02:23:15;;;;;;;142.52;99.47;;;;;;;;;;4979148;28;20055;-37
2022/04/19 02:25:42;;;;;;;136.85;96.03;;;;;;;;;;4980997;28;20030;-40
2022/04/19 02:28:10;;;;;;;137.57;94.70;;;;;;;;;;4978454;28;20493;-38
2022/04/19 02:30:37;;;;;;;137.02;94.63;;;;;;;;;;4981359;28;20050;-40
2022/04/19 02:33:04;;;;;;;134.50;91.72;;;;;;;;;;4983054;28;20488;-40
2022/04/19 02:35:31;;;;;;;133.50;91.20;;;;;;;;;;4981284;28;20034;-39
2022/04/19 02:37:59;;;;;;;127.00;87.90;;;;;;;;;;4979431;28;20042;-40
2022/04/19 02:40:27;;;;;;;120.68;84.05;;;;;;;;;;4973578;28;20027;-40
2022/04/19 02:42:55;;;;;;;118.45;83.25;;;;;;;;;;4973275;28;20043;-39
2022/04/19 02:45:22;;;;;;;113.20;78.05;;;;;;;;;;4973714;28;20042;-40
2022/04/19 02:47:51;;;;;;;112.45;76.82;;;;;;;;;;4973575;28;20481;-39
2022/04/19 02:50:18;;;;;;;111.03;77.53;;;;;;;;;;4973397;28;20038;-38
2022/04/19 02:52:45;;;;;;;115.82;76.47;;;;;;;;;;4973600;28;20489;-37
2022/04/19 02:55:12;;;;;;;102.38;74.00;;;;;;;;;;4973356;28;20453;-38
2022/04/19 02:57:39;;;;;;;102.65;71.82;;;;;;;;;;4973578;28;20031;-40
2022/04/19 03:00:07;;;;;;;97.55;70.68;;;;;;;;;;4973450;28;20030;-40
2022/04/19 03:02:34;;;;;;;95.63;70.07;;;;;;;;;;4973429;28;20034;-40
2022/04/19 03:05:01;;;;;;;92.10;65.85;;;;;;;;;;4973474;28;20022;-39
2022/04/19 03:07:28;;;;;;;96.55;65.97;;;;;;;;;;4973435;28;20035;-40
2022/04/19 03:09:54;;;;;;;95.47;66.63;;;;;;;;;;4973372;28;20023;-40
2022/04/19 03:12:21;;;;;;;88.85;63.03;;;;;;;;;;4973371;28;20031;-41
2022/04/19 03:14:48;;;;;;;87.00;62.80;;;;;;;;;;4973389;28;20393;-38
2022/04/19 03:17:15;;;;;;;90.70;61.95;;;;;;;;;;4973327;28;20058;-37
2022/04/19 03:19:43;;;;;;;87.93;59.65;;;;;;;;;;4973203;28;20054;-36
2022/04/19 03:22:10;;;;;;;85.05;58.78;;;;;;;;;;4974732;28;20030;-36
2022/04/19 03:28:04;;;;;;;78.70;54.90;;;;;;;;;;4977166;28;20413;-39
2022/04/19 03:30:16;;;;;;;81.10;56.50;;;;;;;;;;4969000;28;20045;-37
2022/04/19 03:32:44;;;;;;;75.07;53.63;;;;;;;;;;4976959;28;20054;-41
2022/04/19 03:35:14;;;;;;;72.10;53.55;;;;;;;;;;4976749;28;20556;-39
2022/04/19 03:37:41;;;;;;;74.10;52.85;;;;;;;;;;4976831;28;20054;-40
2022/04/19 03:40:09;;;;;;;69.82;51.28;;;;;;;;;;4976781;28;20034;-39
2022/04/19 03:42:40;;;;;;;69.47;49.63;;;;;;;;;;4976657;28;20065;-40
2022/04/19 03:45:07;;;;;;;75.63;52.05;;;;;;;;;;4976699;28;20037;-40
2022/04/19 03:47:35;;;;;;;72.07;50.17;;;;;;;;;;4976744;28;20054;-39
2022/04/19 03:50:02;;;;;;;65.63;45.60;;;;;;;;;;4976617;28;20046;-38
2022/04/19 03:52:29;;;;;;;63.25;46.03;;;;;;;;;;4976653;28;20482;-41
2022/04/19 03:54:56;;;;;;;66.00;45.63;;;;;;;;;;4976449;28;20481;-39
2022/04/19 03:57:24;;;;;;;62.92;44.45;;;;;;;;;;4976548;28;20027;-40
2022/04/19 03:59:51;;;;;;;62.78;43.80;;;;;;;;;;4976586;28;20106;-36
2022/04/19 04:02:18;;;;;;;64.93;44.50;;;;;;;;;;4976333;28;20034;-41
2022/04/19 04:04:45;;;;;;;55.10;40.70;;;;;;;;;;4976494;28;20106;-41
2022/04/19 04:07:13;;;;;;;59.00;39.90;;;;;;;;;;4976404;28;20023;-40
2022/04/19 04:09:40;;;;;;;55.00;39.40;;;;;;;;;;4976116;28;20042;-39
2022/04/19 04:12:14;;;;;;;58.35;39.22;;;;;;;;;;4976294;28;20077;-37
2022/04/19 04:14:45;;;;;;;54.53;38.60;;;;;;;;;;4976098;28;20031;-36
2022/04/19 04:17:12;;;;;;;50.70;37.53;;;;;;;;;;4976195;28;20106;-40
2022/04/19 04:19:39;;;;;;;49.08;37.08;;;;;;;;;;4976092;28;20038;-40
2022/04/19 04:22:06;;;;;;;51.78;37.45;;;;;;;;;;4976046;28;20030;-36
2022/04/19 04:24:33;;;;;;;52.03;36.00;;;;;;;;;;4975919;28;20054;-40
2022/04/19 04:27:00;;;;;;;48.33;34.25;;;;;;;;;;4975982;28;20101;-38
2022/04/19 04:29:28;;;;;;;43.72;32.97;;;;;;;;;;4975960;28;20458;-40
2022/04/19 04:31:55;;;;;;;48.05;34.03;;;;;;;;;;4975837;28;20057;-36
2022/04/19 04:34:22;;;;;;;46.55;34.72;;;;;;;;;;4974586;28;20110;-40
2022/04/19 04:36:49;;;;;;;50.10;33.30;;;;;;;;;;4972880;28;20348;-41
2022/04/19 04:39:17;;;;;;;48.05;31.70;;;;;;;;;;4973257;28;20081;-41
2022/04/19 04:41:45;;;;;;;42.65;31.00;;;;;;;;;;4975294;28;20458;-39
2022/04/19 04:44:12;;;;;;;42.60;31.08;;;;;;;;;;4975149;28;20113;-37
2022/04/19 04:49:36;;;;;;;42.25;29.60;;;;;;;;;;4975961;28;20138;-40
2022/04/19 04:52:08;;;;;;;41.65;30.33;;;;;;;;;;4975773;28;20077;-39
2022/04/19 04:54:35;;;;;;;40.20;29.30;;;;;;;;;;4973832;28;20046;-36
2022/04/19 04:57:27;;;;;;;44.97;30.23;;;;;;;;;;4972617;28;20031;-38
2022/04/19 04:59:55;;;;;;;39.72;27.75;;;;;;;;;;4974829;28;20046;-40
2022/04/19 05:02:25;;;;;;;37.30;27.75;;;;;;;;;;4975174;28;20027;-40
2022/04/19 05:04:52;;;;;;;41.90;28.48;;;;;;;;;;4975161;28;20042;-39
2022/04/19 05:07:19;;;;;;;42.63;28.73;;;;;;;;;;4975298;28;20196;-39
2022/04/19 05:09:46;;;;;;;38.35;28.48;;;;;;;;;;4975006;28;20090;-37
2022/04/19 05:12:13;;;;;;;38.65;28.10;;;;;;;;;;4975105;28;20054;-41
2022/04/19 05:14:40;;;;;;;37.33;26.80;;;;;;;;;;4975038;28;20026;-40
2022/04/19 05:17:07;;;;;;;37.08;26.95;;;;;;;;;;4974903;28;20381;-38
2022/04/19 05:19:34;;;;;;;35.45;26.08;;;;;;;;;;4974892;28;20089;-41
2022/04/19 05:22:01;;;;;;;36.92;25.65;;;;;;;;;;4975146;28;20370;-41
2022/04/19 05:24:28;;;;;;;35.55;24.85;;;;;;;;;;4974658;28;20073;-39
2022/04/19 05:26:55;;;;;;;33.25;24.77;;;;;;;;;;4974955;28;20031;-37
2022/04/19 05:29:22;;;;;;;33.78;23.42;;;;;;;;;;4974756;28;20026;-41
2022/04/19 05:31:50;;;;;;;34.65;23.88;;;;;;;;;;4974786;28;20022;-38
2022/04/19 05:34:17;;;;;;;31.20;24.02;;;;;;;;;;4974684;28;20035;-37
2022/04/19 05:36:44;;;;;;;29.52;21.30;;;;;;;;;;4974703;28;20077;-41
2022/04/19 05:39:11;;;;;;;31.70;23.40;;;;;;;;;;4974553;28;20046;-38
2022/04/19 05:41:39;;;;;;;30.15;22.58;;;;;;;;;;4974585;28;20106;-38
2022/04/19 05:44:07;;;;;;;29.67;21.52;;;;;;;;;;4974738;28;20039;-37
2022/04/19 05:46:35;;;;;;;28.15;21.50;;;;;;;;;;4973559;28;20031;-38
2022/04/19 05:49:04;;;;;;;28.70;20.08;;;;;;;;;;4974312;28;20430;-41
2022/04/19 05:51:31;;;;;;;29.38;20.77;;;;;;;;;;4974412;28;20456;-39
2022/04/19 05:53:58;;;;;;;27.42;20.33;;;;;;;;;;4974431;28;20389;-39
2022/04/19 05:56:25;;;;;;;25.80;19.20;;;;;;;;;;4974328;28;20019;-40
2022/04/19 05:58:53;;;;;;;27.77;18.83;;;;;;;;;;4974152;28;20038;-41
2022/04/19 06:01:20;;;;;;;27.38;18.95;;;;;;;;;;4974291;28;20500;-37
2022/04/19 06:06:32;;;;;;;26.35;18.85;;;;;;;;;;4974450;28;20085;-39
2022/04/19 06:08:59;;;;;;;23.15;17.27;;;;;;;;;;4956681;28;20400;-40
2022/04/19 06:11:26;;;;;;;24.98;17.65;;;;;;;;;;4974136;28;20035;-41
2022/04/19 06:13:53;;;;;;;23.15;17.15;;;;;;;;;;4956669;28;20393;-41
2022/04/19 06:16:20;;;;;;;22.65;16.65;;;;;;;;;;4974048;28;20031;-41
2022/04/19 06:18:47;;;;;;;22.30;17.27;;;;;;;;;;4973912;28;20046;-39
2022/04/19 06:21:14;;;;;;;23.20;15.57;;;;;;;;;;4973901;28;20027;-40
2022/04/19 06:23:41;;;;;;;23.00;15.85;;;;;;;;;;4973582;28;20398;-40
2022/04/19 06:26:08;;;;;;;21.50;15.60;;;;;;;;;;4973887;28;20114;-38
2022/04/19 06:28:35;;;;;;;22.88;15.90;;;;;;;;;;4973856;28;20034;-38
2022/04/19 06:31:08;;;;;;;22.80;15.52;;;;;;;;;;5077574;23;20066;31
2022/04/19 06:33:36;;;;;;;20.67;15.63;;;;;;;;;;4912996;29;20079;-39
2022/04/19 06:36:05;;;;;;;19.52;14.90;;;;;;;;;;4916614;29;20043;-39
2022/04/19 06:38:32;;;;;;;19.70;14.40;;;;;;;;;;4916855;29;20043;-39
2022/04/19 06:40:59;;;;;;;19.77;14.23;;;;;;;;;;4916648;29;20036;-39
2022/04/19 06:43:26;;;;;;;19.83;14.75;;;;;;;;;;4916303;29;20047;-39
2022/04/19 06:45:53;;;;;;;19.02;13.48;;;;;;;;;;4916539;29;20047;-39
2022/04/19 06:48:20;;;;;;;20.15;13.45;;;;;;;;;;4916509;29;20119;-39
2022/04/19 06:50:47;;;;;;;21.90;13.93;;;;;;;;;;4916473;29;20028;-39
2022/04/19 06:53:14;;;;;;;20.13;13.90;;;;;;;;;;4916346;29;20451;-39
2022/04/19 06:55:41;;;;;;;17.15;12.55;;;;;;;;;;4916399;29;20028;-39
2022/04/19 06:58:09;;;;;;;15.95;13.15;;;;;;;;;;4921829;29;20790;-39
2022/04/19 07:00:36;;;;;;;15.23;11.82;;;;;;;;;;4922897;29;20036;-39
2022/04/19 07:03:03;;;;;;;20.42;13.45;;;;;;;;;;4922744;29;20036;-39
2022/04/19 07:05:30;;;;;;;18.65;12.65;;;;;;;;;;4922672;29;20462;-39
2022/04/19 07:07:57;;;;;;;18.83;12.60;;;;;;;;;;4922575;29;20035;-39
2022/04/19 07:10:25;;;;;;;15.27;11.00;;;;;;;;;;4922575;29;20055;-39
2022/04/19 07:12:51;;;;;;;17.48;11.80;;;;;;;;;;4922525;29;20028;-39
2022/04/19 07:15:19;;;;;;;15.88;11.18;;;;;;;;;;4922541;29;20421;-39
2022/04/19 07:17:46;;;;;;;17.45;10.63;;;;;;;;;;4922533;29;20067;-39
2022/04/19 07:28:36;;;;;;;14.45;10.50;;;;;;;;;;4920863;29;20043;-39
2022/04/19 07:31:03;;;;;;;15.27;10.82;;;;;;;;;;4922333;29;20084;-40
2022/04/19 07:33:31;;;;;;;16.52;10.63;;;;;;;;;;4905101;29;20052;-39
2022/04/19 07:35:58;;;;;;;16.20;10.18;;;;;;;;;;4922345;29;20020;-38
2022/04/19 07:38:25;;;;;;;16.20;10.30;;;;;;;;;;4922179;29;20458;-38
2022/04/19 07:40:52;;;;;;;13.27;9.68;;;;;;;;;;4922322;29;20024;-39
2022/04/19 07:43:19;;;;;;;12.23;9.55;;;;;;;;;;4922117;29;20043;-39
2022/04/19 07:45:46;;;;;;;13.00;9.02;;;;;;;;;;4922173;29;20032;-39
2022/04/19 07:48:13;;;;;;;13.15;9.38;;;;;;;;;;4922247;29;20075;-39
2022/04/19 07:50:40;;;;;;;12.77;8.95;;;;;;;;;;4922205;29;20036;-39
2022/04/19 07:53:07;;;;;;;15.10;9.45;;;;;;;;;;4922137;29;20490;-39
2022/04/19 07:55:34;;;;;;;14.60;9.48;;;;;;;;;;4922200;29;20020;-39
2022/04/19 07:58:01;;;;;;;16.65;9.13;;;;;;;;;;4922202;29;20027;-39
2022/04/19 08:00:28;;;;;;;13.20;8.90;;;;;;;;;;4922172;29;20401;-39
2022/04/19 08:02:55;;;;;;;13.18;9.13;;;;;;;;;;4922105;29;20040;-39
2022/04/19 08:05:23;;;;;;;13.15;8.30;;;;;;;;;;4922100;29;20043;-39
2022/04/19 08:07:50;;;;;;;10.65;8.07;;;;;;;;;;4921289;29;20024;-39
2022/04/19 08:10:17;;;;;;;11.23;8.55;;;;;;;;;;4918586;29;20103;-39
2022/04/19 08:12:45;;;;;;;11.52;8.02;;;;;;;;;;4919016;29;20047;-39
2022/04/19 08:15:13;;;;;;;10.30;7.80;;;;;;;;;;4918976;29;20132;-39
2022/04/19 08:17:40;;;;;;;10.88;7.88;;;;;;;;;;4918992;29;20035;-39
2022/04/19 08:20:08;;;;;;;12.57;8.52;;;;;;;;;;4919031;29;20434;-39
2022/04/19 08:22:35;;;;;;;10.65;7.78;;;;;;;;;;4918818;29;20394;-39
2022/04/19 08:25:03;;;;;;;9.15;7.05;;;;;;;;;;4918889;29;20032;-39
2022/04/19 08:27:30;;;;;;;12.85;8.55;;;;;;;;;;4918724;29;20079;-39
2022/04/19 08:29:57;;;;;;;9.43;7.40;;;;;;;;;;4918821;29;20475;-39
2022/04/19 08:32:24;;;;;;;10.20;7.00;;;;;;;;;;4918466;29;20506;-39
2022/04/19 08:34:51;;;;;;;10.65;7.20;;;;;;;;;;4918992;29;20545;-39
2022/04/19 08:37:20;;;;;;;8.45;7.05;;;;;;;;;;4918700;29;20091;-39
2022/04/19 08:39:47;;;;;;;10.20;7.15;;;;;;;;;;4918584;29;20087;-39
2022/04/19 08:42:14;;;;;;;9.45;7.20;;;;;;;;;;4918497;29;20058;-39
2022/04/19 08:44:41;;;;;;;11.25;7.40;;;;;;;;;;4918562;29;20032;-39
2022/04/19 08:47:08;;;;;;;9.25;7.10;;;;;;;;;;4918517;29;20032;-39
2022/04/19 08:49:42;;;;;;;12.60;6.40;;;;;;;;;;4918453;29;20075;-39
2022/04/19 08:52:14;;;;;;;9.63;7.20;;;;;;;;;;4918158;29;20109;-39
2022/04/19 08:57:35;;;;;;;10.82;6.75;;;;;;;;;;4910080;29;20435;-39
2022/04/19 09:00:04;;;;;;;8.82;6.53;;;;;;;;;;4918193;29;20367;-39
2022/04/19 09:02:32;;;;;;;10.40;6.15;;;;;;;;;;4918038;29;20333;-39
2022/04/19 09:05:13;;;;;;;7.97;6.07;;;;;;;;;;4901191;29;20123;-39
2022/04/19 09:07:41;;;;;;;9.90;6.05;;;;;;;;;;4918031;29;20032;-39
2022/04/19 09:10:14;;;;;;;10.43;6.55;;;;;;;;;;4918057;29;20391;-39
2022/04/19 09:13:01;;;;;;;9.32;6.93;;;;;;;;;;4917798;29;20490;-39
2022/04/19 09:15:40;;;;;;;9.02;5.38;;;;;;;;;;4905109;29;20043;-39
2022/04/19 09:18:24;;;;;;;10.35;6.22;;;;;;;;;;4917915;29;20083;-39
2022/04/19 09:20:55;;;;;;;7.85;6.00;;;;;;;;;;4917590;29;20099;-39
2022/04/19 09:23:22;;;;;;;9.60;6.50;;;;;;;;;;4917705;29;20067;-39
2022/04/19 09:25:53;;;;;;;9.07;5.75;;;;;;;;;;4917401;29;20122;-39
2022/04/19 09:28:21;;;;;;;8.55;5.70;;;;;;;;;;4909239;29;20032;-39
2022/04/19 09:30:49;;;;;;;9.10;6.47;;;;;;;;;;4917261;29;20314;-40
2022/04/19 09:33:18;;;;;;;11.15;6.03;;;;;;;;;;4895433;29;20542;-39
2022/04/19 09:35:54;;;;;;;10.48;6.05;;;;;;;;;;4898646;29;20032;-39
2022/04/19 09:38:37;;;;;;;8.63;5.47;;;;;;;;;;4898676;29;20428;-39
2022/04/19 09:41:08;;;;;;;8.48;5.10;;;;;;;;;;4898421;29;20056;-39
2022/04/19 09:43:35;;;;;;;11.40;6.05;;;;;;;;;;4898507;29;20040;-39
2022/04/19 09:46:03;;;;;;;9.40;5.75;;;;;;;;;;4898514;29;20103;-39
2022/04/19 09:48:32;;;;;;;10.98;5.43;;;;;;;;;;4898432;29;20029;-39
2022/04/19 09:51:02;;;;;;;7.32;5.20;;;;;;;;;;4898182;29;20522;-39
2022/04/19 09:53:30;;;;;;;8.45;5.30;;;;;;;;;;4898312;29;20116;-39
2022/04/19 09:55:58;;;;;;;8.88;6.00;;;;;;;;;;4898361;29;20056;-39
2022/04/19 09:58:25;;;;;;;8.90;5.50;;;;;;;;;;4898330;29;20100;-39
2022/04/19 10:00:53;;;;;;;9.30;5.05;;;;;;;;;;4898178;29;20021;-39
2022/04/19 10:08:39;;;;;;;8.27;5.50;;;;;;;;;;4898447;29;20063;-39
2022/04/19 10:11:06;;;;;;;8.85;4.82;;;;;;;;;;4898030;29;20103;-39
2022/04/19 10:13:34;;;;;;;8.40;4.93;;;;;;;;;;4897983;29;20043;-39
2022/04/19 10:16:01;;;;;;;7.50;4.90;;;;;;;;;;4898009;29;20551;-39
2022/04/19 10:18:27;;;;;;;8.68;4.47;;;;;;;;;;4898019;29;20040;-39
2022/04/19 10:21:01;;;;;;;10.00;5.03;;;;;;;;;;4897913;29;20125;-39
2022/04/19 10:23:57;;;;;;;7.22;4.72;;;;;;;;;;4897788;29;20033;-39
2022/04/19 10:26:25;;;;;;;9.38;4.97;;;;;;;;;;4885741;29;20123;-39
2022/04/19 10:28:52;;;;;;;8.20;5.10;;;;;;;;;;4897350;29;20154;-39
2022/04/19 10:31:45;;;;;;;7.80;4.68;;;;;;;;;;4897100;29;20071;-39
2022/04/19 10:34:12;;;;;;;;;;;;;;;;;;4889893;29;20062;-39
2022/04/19 10:36:40;;;;;;;8.23;4.70;;;;;;;;;;4916249;29;19962;-39
2022/04/19 10:39:16;;;;;;;6.43;5.18;;;;;;;;;;4916167;29;20028;-39
2022/04/19 10:41:52;;;;;;;12.43;5.38;;;;;;;;;;4916204;29;20024;-43
2022/04/19 10:44:26;;;;;;;12.15;4.80;;;;;;;;;;4916208;29;20483;-43
2022/04/19 10:47:11;;;;;;;9.40;4.70;;;;;;;;;;4916420;29;20387;-43
2022/04/19 10:49:59;;;;;;;6.32;4.68;;;;;;;;;;4916282;29;20032;-43
2022/04/19 10:52:35;;;;;;;12.25;4.97;;;;;;;;;;4916332;29;20028;-43
2022/04/19 10:55:14;;;;;;;11.40;4.70;;;;;;;;;;4916367;29;20080;-43
2022/04/19 11:00:43;;;;;;;6.07;4.10;;;;;;;;;;4916873;29;20043;-43
2022/04/19 11:03:15;;;;;;;8.45;4.15;;;;;;;;;;4916118;29;20043;-43
2022/04/19 11:05:43;;;;;;;10.60;5.60;;;;;;;;;;4916297;29;20020;-42
2022/04/19 11:08:25;;;;;;;9.55;4.38;;;;;;;;;;4916418;29;20387;-43
2022/04/19 11:11:00;;;;;;;6.57;3.78;;;;;;;;;;4916146;29;20508;-43
2022/04/19 11:13:29;;;;;;;8.68;4.43;;;;;;;;;;4912948;29;20122;-43
2022/04/19 11:16:00;;;;;;;35.97;5.65;;;;;;;;;;4915252;29;20053;-44
2022/04/19 11:18:27;;;;;;;28.85;5.25;;;;;;;;;;4914288;29;20024;-43
2022/04/19 11:20:59;;;;;;;77.65;7.50;;;;;;;;;;4915054;29;20028;-41
2022/04/19 11:23:27;;;;;;;134.53;13.17;;;;;;;;;;4914839;29;20028;-41
2022/04/19 11:25:57;;;;;;;103.07;13.00;;;;;;;;;;4915338;29;20039;-39
2022/04/19 11:28:24;;;;;;;50.13;11.70;;;;;;;;;;4914992;29;20095;-40
2022/04/19 11:30:51;;;;;;;65.90;11.77;;;;;;;;;;4914951;29;20028;-39
2022/04/19 11:33:21;;;;;;;55.25;10.60;;;;;;;;;;4914997;29;20131;-41
2022/04/19 11:36:04;;;;;;;67.80;11.25;;;;;;;;;;4914985;29;20036;-41
2022/04/19 11:38:35;;;;;;;32.35;9.55;;;;;;;;;;4909753;29;20036;-39
2022/04/19 11:46:44;;;;;;;65.40;11.25;;;;;;;;;;4917878;29;20554;-38
2022/04/19 11:49:17;;;;;;;33.88;9.27;;;;;;;;;;4913145;29;20040;-39
2022/04/19 11:51:47;;;;;;;38.22;9.05;;;;;;;;;;4899005;29;20027;-39
2022/04/19 11:54:21;;;;;;;49.60;9.93;;;;;;;;;;4898023;29;20033;-37
2022/04/19 11:57:14;;;;;;;63.03;12.27;;;;;;;;;;4897875;29;20089;-38
2022/04/19 11:59:42;;;;;;;64.72;11.20;;;;;;;;;;4896866;29;20457;-36
2022/04/19 12:02:20;;;;;;;65.30;10.98;;;;;;;;;;4898957;29;20056;-38
2022/04/19 12:04:50;;;;;;;62.90;11.70;;;;;;;;;;4898874;29;20092;-37
2022/04/19 12:07:17;;;;;;;85.93;13.55;;;;;;;;;;4897904;29;20031;-37
2022/04/19 12:09:46;;;;;;;76.63;12.05;;;;;;;;;;4898958;29;20028;-38
2022/04/19 12:12:13;;;;;;;66.00;11.85;;;;;;;;;;4899002;29;20423;-39
2022/04/19 12:14:40;;;;;;;54.85;10.55;;;;;;;;;;4898348;29;20060;-37
2022/04/19 12:17:08;;;;;;;53.35;9.70;;;;;;;;;;4897841;29;20878;-39
2022/04/19 12:19:44;;;;;;;49.33;9.18;;;;;;;;;;4898959;29;20127;-36
2022/04/19 12:22:19;;;;;;;41.83;8.25;;;;;;;;;;4898407;29;20036;-35
2022/04/19 12:24:47;;;;;;;36.00;7.55;;;;;;;;;;4898313;29;20112;-36
2022/04/19 12:27:14;;;;;;;26.10;7.18;;;;;;;;;;4898213;29;20039;-38
2022/04/19 12:29:58;;;;;;;18.77;6.70;;;;;;;;;;4898241;29;20087;-38
2022/04/19 12:32:25;;;;;;;24.70;6.15;;;;;;;;;;4898209;29;20044;-36
2022/04/19 12:35:05;;;;;;;20.55;5.68;;;;;;;;;;4898547;29;20024;-37
2022/04/19 12:37:32;;;;;;;24.48;6.20;;;;;;;;;;4898182;29;20052;-37
2022/04/19 12:40:00;;;;;;;17.58;4.95;;;;;;;;;;4897333;29;20036;-36
2022/04/19 12:42:27;;;;;;;18.77;5.00;;;;;;;;;;4915220;29;20036;-36
2022/04/19 12:45:03;;;;;;;40.35;5.72;;;;;;;;;;4916923;29;20032;-41
2022/04/19 12:47:30;;;;;;;123.75;12.63;;;;;;;;;;4917240;29;20386;-42
2022/04/19 12:49:58;;;;;;;104.63;11.52;;;;;;;;;;4916294;29;20028;-39
2022/04/19 12:52:31;;;;;;;79.25;9.13;;;;;;;;;;4916947;29;20039;-37
2022/04/19 12:55:02;;;;;;;81.68;10.80;;;;;;;;;;4916399;29;20115;-38
2022/04/19 13:00:15;;;;;;;57.13;7.07;;;;;;;;;;4915933;29;20133;-37
2022/04/19 13:02:43;;;;;;;49.53;7.68;;;;;;;;;;4916761;29;20035;-37
2022/04/19 13:05:10;;;;;;;51.83;7.55;;;;;;;;;;4916337;29;20064;-38
2022/04/19 13:13:07;;;;;;;34.15;5.57;;;;;;;;;;4916242;29;20091;-38
2022/04/19 13:15:35;;;;;;;32.97;5.93;;;;;;;;;;4916763;29;20020;-41
2022/04/19 13:18:03;;;;;;;35.25;6.07;;;;;;;;;;4916721;29;20028;-45
2022/04/19 13:20:30;;;;;;;33.67;4.85;;;;;;;;;;4913532;29;20024;-42
2022/04/19 13:22:57;;;;;;;37.60;6.13;;;;;;;;;;4911055;29;20020;-40
2022/04/19 13:25:24;;;;;;;28.83;5.03;;;;;;;;;;4916573;29;20036;-40
2022/04/19 13:27:51;;;;;;;28.23;5.63;;;;;;;;;;4916298;29;20035;-40
2022/04/19 13:30:19;;;;;;;33.83;5.05;;;;;;;;;;4916108;29;20450;-39
2022/04/19 13:32:47;;;;;;;23.70;6.65;;;;;;;;;;4915139;29;20100;-39
2022/04/19 13:35:14;;;;;;;45.60;5.82;;;;;;;;;;4915877;29;20024;-38
2022/04/19 13:40:26;;;;;;;51.90;6.65;;;;;;;;;;4916283;29;20043;-39
2022/04/19 13:42:53;;;;;;;63.00;6.50;;;;;;;;;;4914997;29;20039;-40
2022/04/19 13:45:20;;;;;;;55.80;5.47;;;;;;;;;;4916069;29;20043;-40
2022/04/19 13:47:47;;;;;;;34.58;4.63;;;;;;;;;;4915874;29;20028;-39
2022/04/19 13:50:14;;;;;;;29.73;4.35;;;;;;;;;;4915567;29;20065;-39
2022/04/19 13:52:42;;;;;;;32.65;4.25;;;;;;;;;;4914776;29;20499;-39
2022/04/19 13:55:11;;;;;;;41.17;4.47;;;;;;;;;;4915546;29;20032;-40
2022/04/19 13:57:38;;;;;;;40.55;5.38;;;;;;;;;;4915301;29;20044;-42
2022/04/19 14:00:05;;;;;;;43.78;4.78;;;;;;;;;;4915799;29;20039;-42
2022/04/19 14:02:32;;;;;;;42.28;5.10;;;;;;;;;;4915403;29;20024;-44
2022/04/19 14:04:59;;;;;;;37.05;4.88;;;;;;;;;;4914573;29;20110;-40
2022/04/19 14:07:27;;;;;;;36.70;4.97;;;;;;;;;;4914904;29;20034;-41
2022/04/19 14:09:54;;;;;;;31.98;4.45;;;;;;;;;;4915415;29;20046;-45
2022/04/19 14:12:21;;;;;;;45.03;5.38;;;;;;;;;;4915279;29;20054;-40
2022/04/19 14:14:48;;;;;;;38.20;5.55;;;;;;;;;;4914548;29;20032;-38
2022/04/19 14:17:15;;;;;;;38.25;5.93;;;;;;;;;;4915515;29;20759;-39
2022/04/19 14:19:42;;;;;;;56.15;5.78;;;;;;;;;;4915154;29;20103;-41
2022/04/19 14:22:09;;;;;;;41.53;6.07;;;;;;;;;;4915442;29;20040;-40
2022/04/19 14:24:36;;;;;;;61.42;7.28;;;;;;;;;;4914456;29;20044;-42
2022/04/19 14:27:03;;;;;;;69.35;7.80;;;;;;;;;;4915191;29;20060;-39
2022/04/19 14:35:00;;;;;;;85.97;7.00;;;;;;;;;;4914493;29;20074;-48
2022/04/19 14:37:27;;;;;;;69.45;6.40;;;;;;;;;;4915101;29;20047;-45
2022/04/19 14:39:54;;;;;;;50.60;6.65;;;;;;;;;;4897473;29;20066;-44
2022/04/19 14:42:21;;;;;;;76.05;8.13;;;;;;;;;;4897800;29;20036;-42
2022/04/19 14:44:48;;;;;;;53.88;6.07;;;;;;;;;;4914950;29;20392;-42
2022/04/19 14:47:15;;;;;;;72.97;7.50;;;;;;;;;;4914415;29;20491;-42
2022/04/19 14:49:43;;;;;;;69.97;6.60;;;;;;;;;;4897721;29;20052;-42
2022/04/19 14:52:21;;;;;;;71.53;7.30;;;;;;;;;;4914897;29;20036;-42
2022/04/19 14:54:51;;;;;;;69.28;7.47;;;;;;;;;;4914567;29;20415;-41
2022/04/19 14:57:19;;;;;;;88.53;9.02;;;;;;;;;;4914292;29;20032;-41
2022/04/19 14:59:47;;;;;;;68.25;8.27;;;;;;;;;;4914411;29;20028;-41
2022/04/19 15:02:15;;;;;;;95.53;11.10;;;;;;;;;;4914807;29;20491;-41
2022/04/19 15:04:42;;;;;;;103.32;18.83;;;;;;;;;;4914396;29;20040;-42
2022/04/19 15:07:29;;;;;;;152.45;37.10;;;;;;;;;;4913948;29;20501;-42
2022/04/19 15:09:55;;;;;;;165.50;47.33;;;;;;;;;;4914638;29;20038;-41
2022/04/19 15:12:23;;;;;;;161.23;51.60;;;;;;;;;;4914424;29;20078;-41
2022/04/19 15:14:50;;;;;;;144.13;42.28;;;;;;;;;;4914901;29;20103;-41
2022/04/19 15:17:18;;;;;;;106.72;28.35;;;;;;;;;;4915306;29;20032;-41
2022/04/19 15:19:45;;;;;;;106.53;23.27;;;;;;;;;;4918679;29;20525;-41
2022/04/19 15:22:13;;;;;;;118.03;20.58;;;;;;;;;;4901475;29;20143;-41